createdAt,value
2022-08-24T00:00:40.982Z,3.38
2022-08-24T00:03:35.459Z,3.42
2022-08-24T00:06:31.385Z,3.58
2022-08-24T00:09:26.372Z,3.80
2022-08-24T00:12:21.423Z,3.90
2022-08-24T00:15:12.149Z,3.58
2022-08-24T00:18:06.370Z,3.30
2022-08-24T00:21:00.383Z,3.15
2022-08-24T00:23:55.423Z,3.25
2022-08-24T00:26:49.471Z,3.67
2022-08-24T00:29:36.965Z,3.90
2022-08-24T00:32:30.444Z,3.85
2022-08-24T00:35:19.835Z,4.22
2022-08-24T00:38:14.432Z,3.90
2022-08-24T00:41:02.538Z,3.92
2022-08-24T00:44:14.412Z,3.92
2022-08-24T00:47:14.435Z,3.53
2022-08-24T00:50:08.716Z,3.90
2022-08-24T00:53:09.439Z,4.28
2022-08-24T00:56:01.094Z,3.42
2022-08-24T00:59:00.472Z,3.95
2022-08-24T01:01:56.469Z,4.47
2022-08-24T01:04:54.795Z,4.18
2022-08-24T01:07:48.468Z,4.38
2022-08-24T01:10:52.496Z,3.83
2022-08-24T01:13:49.547Z,4.10
2022-08-24T01:16:55.284Z,3.70
2022-08-24T01:19:59.480Z,3.95
2022-08-24T01:23:07.007Z,3.65
2022-08-24T01:26:00.503Z,4.32
2022-08-24T01:28:55.888Z,4.03
2022-08-24T01:31:51.591Z,3.60
2022-08-24T01:34:38.934Z,4.07
2022-08-24T01:37:32.514Z,4.10
2022-08-24T01:40:20.468Z,3.58
2022-08-24T01:43:15.545Z,4.10
2022-08-24T01:46:02.807Z,3.90
2022-08-24T01:48:56.597Z,3.55
2022-08-24T01:51:46.303Z,3.63
2022-08-24T01:54:40.535Z,3.85
2022-08-24T01:57:37.579Z,3.55
2022-08-24T02:00:31.597Z,3.60
2022-08-24T02:03:19.114Z,3.28
2022-08-24T02:06:13.559Z,4.10
2022-08-24T02:09:01.518Z,3.55
2022-08-24T02:11:55.612Z,4.00
2022-08-24T02:14:42.879Z,3.90
2022-08-24T02:17:36.651Z,3.72
2022-08-24T02:20:23.972Z,3.58
2022-08-24T02:23:17.627Z,3.67
2022-08-24T02:26:10.055Z,4.00
2022-08-24T02:31:51.399Z,4.13
2022-08-24T02:34:45.588Z,4.70
2022-08-24T02:37:32.943Z,4.30
2022-08-24T02:40:27.718Z,4.25
2022-08-24T02:43:14.906Z,4.47
2022-08-24T02:46:08.686Z,3.88
2022-08-24T02:49:11.196Z,3.90
2022-08-24T02:52:05.624Z,4.97
2022-08-24T02:54:59.685Z,4.35
2022-08-24T02:57:47.927Z,4.68
2022-08-24T03:00:45.638Z,4.22
2022-08-24T03:03:39.683Z,4.32
2022-08-24T03:06:33.656Z,4.63
2022-08-24T03:09:28.881Z,4.75
2022-08-24T03:12:22.659Z,4.82
2022-08-24T03:15:17.662Z,5.10
2022-08-24T03:18:11.663Z,5.20
2022-08-24T03:21:09.682Z,4.47
2022-08-24T03:24:03.689Z,4.55
2022-08-24T03:26:50.979Z,4.40
2022-08-24T03:29:44.702Z,4.43
2022-08-24T03:32:32.277Z,5.35
2022-08-24T03:35:28.701Z,4.88
2022-08-24T03:38:16.397Z,4.40
2022-08-24T03:41:09.719Z,4.55
2022-08-24T03:43:56.954Z,4.93
2022-08-24T03:46:52.722Z,5.70
2022-08-24T03:49:46.706Z,5.75
2022-08-24T03:52:41.751Z,5.55
2022-08-24T03:55:28.807Z,5.43
2022-08-24T03:58:22.758Z,5.15
2022-08-24T04:01:17.915Z,5.35
2022-08-24T04:04:06.153Z,4.88
2022-08-24T04:06:59.835Z,4.80
2022-08-24T04:09:53.979Z,4.85
2022-08-24T04:12:54.929Z,4.90
2022-08-24T04:15:43.154Z,4.90
2022-08-24T04:18:36.813Z,4.88
2022-08-24T04:21:36.849Z,4.03
2022-08-24T04:24:30.769Z,4.38
2022-08-24T04:27:24.784Z,4.55
2022-08-24T04:30:20.842Z,4.90
2022-08-24T04:33:08.776Z,4.63
2022-08-24T04:36:02.782Z,4.70
2022-08-24T04:38:56.835Z,4.75
2022-08-24T04:41:50.856Z,5.32
2022-08-24T04:44:38.071Z,5.32
2022-08-24T04:47:31.927Z,4.65
2022-08-24T04:50:19.121Z,5.00
2022-08-24T04:53:14.987Z,4.40
2022-08-24T04:56:02.517Z,4.40
2022-08-24T04:58:57.837Z,4.95
2022-08-24T05:01:51.916Z,4.43
2022-08-24T05:04:39.033Z,4.82
2022-08-24T05:07:32.866Z,4.85
2022-08-24T05:10:20.746Z,4.80
2022-08-24T05:13:15.317Z,5.10
2022-08-24T05:16:10.766Z,5.60
2022-08-24T05:19:04.845Z,5.22
2022-08-24T05:21:52.439Z,4.95
2022-08-24T05:24:45.888Z,5.13
2022-08-24T05:27:34.202Z,5.30
2022-08-24T05:30:27.881Z,4.95
2022-08-24T05:33:15.004Z,4.40
2022-08-24T05:36:09.889Z,5.07
2022-08-24T05:39:19.917Z,5.35
2022-08-24T05:42:13.964Z,5.25
2022-08-24T05:45:07.971Z,4.80
2022-08-24T05:48:01.900Z,5.47
2022-08-24T05:50:56.382Z,6.00
2022-08-24T05:53:50.931Z,5.72
2022-08-24T05:56:38.007Z,6.40
2022-08-24T05:59:31.901Z,5.97
2022-08-24T06:02:27.101Z,5.95
2022-08-24T06:05:20.983Z,5.80
2022-08-24T06:08:14.935Z,5.35
2022-08-24T06:11:02.697Z,5.32
2022-08-24T06:13:56.334Z,5.78
2022-08-24T06:16:54.134Z,4.82
2022-08-24T06:19:43.789Z,4.70
2022-08-24T06:22:36.950Z,4.13
2022-08-24T06:25:42.607Z,4.50
2022-08-24T06:28:37.002Z,4.15
2022-08-24T06:31:24.999Z,2.90
2022-08-24T06:34:20.966Z,2.75
2022-08-24T06:37:15.000Z,3.40
2022-08-24T06:40:09.139Z,2.78
2022-08-24T06:43:10.073Z,2.92
2022-08-24T06:46:05.138Z,3.10
2022-08-24T06:48:52.947Z,3.10
2022-08-24T06:51:50.544Z,2.67
2022-08-24T06:54:39.072Z,2.22
2022-08-24T06:57:39.024Z,2.28
2022-08-24T07:00:26.243Z,2.00
2022-08-24T07:03:21.135Z,1.80
2022-08-24T07:06:08.939Z,1.98
2022-08-24T07:09:03.036Z,1.90
2022-08-24T07:11:57.027Z,2.28
2022-08-24T07:14:51.040Z,1.90
2022-08-24T07:17:38.214Z,2.38
2022-08-24T07:20:32.114Z,4.35
2022-08-24T07:23:20.819Z,3.47
2022-08-24T07:26:21.767Z,2.60
2022-08-24T07:32:28.870Z,2.13
2022-08-24T07:35:23.122Z,2.45
2022-08-24T07:38:19.140Z,2.33
2022-08-24T07:41:33.755Z,2.30
2022-08-24T07:44:22.089Z,2.75
2022-08-24T07:47:36.906Z,2.22
2022-08-24T07:50:23.305Z,2.95
2022-08-24T07:53:20.818Z,4.78
2022-08-24T07:56:12.286Z,4.10
2022-08-24T07:59:08.700Z,3.67
2022-08-24T08:02:06.239Z,2.30
2022-08-24T08:05:03.188Z,3.97
2022-08-24T08:07:59.217Z,3.45
2022-08-24T08:10:46.783Z,4.82
2022-08-24T08:16:29.683Z,5.55
2022-08-24T08:19:24.145Z,9.70
2022-08-24T08:22:29.720Z,5.07
2022-08-24T08:25:25.157Z,3.20
2022-08-24T08:28:25.456Z,3.20
2022-08-24T08:31:20.282Z,8.43
2022-08-24T08:34:08.652Z,4.13
2022-08-24T08:37:02.287Z,3.67
2022-08-24T08:39:56.256Z,4.05
2022-08-24T08:42:59.099Z,3.42
2022-08-24T08:46:03.368Z,3.63
2022-08-24T08:49:20.270Z,4.25
2022-08-24T08:52:19.895Z,5.00
2022-08-24T08:55:53.456Z,3.95
2022-08-24T08:59:10.696Z,2.80
2022-08-24T09:02:24.217Z,6.03
2022-08-24T09:09:05.210Z,3.65
2022-08-24T09:12:10.243Z,5.95
2022-08-24T09:15:26.240Z,3.25
2022-08-24T09:18:45.297Z,4.90
2022-08-24T09:21:56.374Z,2.85
2022-08-24T09:25:06.225Z,4.53
2022-08-24T09:28:10.330Z,3.47
2022-08-24T09:30:57.743Z,1.95
2022-08-24T09:33:55.305Z,2.15
2022-08-24T09:36:59.863Z,2.38
2022-08-24T09:40:08.448Z,2.40
2022-08-24T09:43:31.256Z,1.83
2022-08-24T09:46:49.304Z,1.30
2022-08-24T09:49:48.604Z,2.83
2022-08-24T09:53:07.340Z,2.60
2022-08-24T09:56:15.548Z,2.28
2022-08-24T09:59:12.365Z,1.80
2022-08-24T10:02:41.401Z,2.00
2022-08-24T10:06:04.642Z,2.38
2022-08-24T10:08:58.731Z,2.90
2022-08-24T10:12:09.322Z,1.95
2022-08-24T10:15:21.437Z,1.60
2022-08-24T10:18:45.353Z,1.73
2022-08-24T10:21:49.285Z,1.50
2022-08-24T10:25:07.509Z,1.60
2022-08-24T10:28:19.584Z,1.70
2022-08-24T10:31:17.396Z,2.00
2022-08-24T10:34:45.359Z,2.03
2022-08-24T10:37:47.354Z,1.70
2022-08-24T10:41:10.369Z,1.50
2022-08-24T10:44:38.446Z,1.48
2022-08-24T10:47:37.497Z,2.10
2022-08-24T10:50:50.487Z,1.77
2022-08-24T10:53:44.384Z,2.10
2022-08-24T10:56:58.804Z,2.60
2022-08-24T11:00:12.379Z,2.10
2022-08-24T11:03:16.156Z,1.70
2022-08-24T11:06:22.401Z,1.63
2022-08-24T11:09:18.707Z,2.97
2022-08-24T11:12:28.390Z,2.30
2022-08-24T11:15:24.418Z,1.90
2022-08-24T11:18:11.562Z,2.88
2022-08-24T11:21:09.667Z,2.10
2022-08-24T11:24:02.635Z,3.05
2022-08-24T11:27:11.437Z,1.63
2022-08-24T11:30:02.815Z,1.80
2022-08-24T11:33:01.530Z,1.52
2022-08-24T11:35:55.551Z,1.80
2022-08-24T11:38:45.974Z,1.70
2022-08-24T11:41:48.455Z,1.63
2022-08-24T11:45:12.467Z,1.73
2022-08-24T11:48:24.672Z,1.52
2022-08-24T11:51:32.890Z,1.67
2022-08-24T11:54:44.456Z,1.10
2022-08-24T11:57:47.403Z,1.00
2022-08-24T12:01:18.493Z,1.05
2022-08-24T12:04:38.537Z,0.90
2022-08-24T12:08:09.547Z,0.70
2022-08-24T12:11:32.698Z,0.80
2022-08-24T12:14:34.542Z,1.00
2022-08-24T12:20:33.189Z,0.95
2022-08-24T12:23:32.557Z,0.73
2022-08-24T12:26:49.663Z,0.65
2022-08-24T12:30:18.545Z,0.50
2022-08-24T12:33:19.534Z,0.80
2022-08-24T12:36:22.271Z,0.80
2022-08-24T12:39:26.563Z,0.65
2022-08-24T12:42:26.579Z,1.00
2022-08-24T12:45:17.217Z,0.80
2022-08-24T12:48:23.589Z,0.55
2022-08-24T12:51:45.577Z,0.80
2022-08-24T12:55:11.585Z,0.90
2022-08-24T12:58:54.558Z,1.20
2022-08-24T13:01:47.379Z,1.00
2022-08-24T13:04:44.613Z,0.85
2022-08-24T13:07:46.665Z,1.40
2022-08-24T13:10:45.318Z,1.42
2022-08-24T13:13:51.671Z,1.45
2022-08-24T13:16:49.398Z,1.35
2022-08-24T13:19:49.612Z,1.40
2022-08-24T13:22:46.642Z,1.00
2022-08-24T13:26:05.630Z,1.60
2022-08-24T13:28:57.064Z,1.08
2022-08-24T13:32:00.643Z,1.30
2022-08-24T13:34:51.701Z,1.38
2022-08-24T13:37:45.643Z,1.40
2022-08-24T13:40:44.315Z,1.58
2022-08-24T13:43:59.724Z,1.42
2022-08-24T13:47:24.728Z,1.30
2022-08-24T13:50:28.918Z,1.20
2022-08-24T13:53:59.665Z,1.30
2022-08-24T13:57:06.826Z,1.02
2022-08-24T14:00:06.755Z,1.42
2022-08-24T14:03:18.657Z,1.20
2022-08-24T14:06:32.761Z,0.85
2022-08-24T14:09:49.102Z,0.90
2022-08-24T14:12:52.696Z,0.82
2022-08-24T14:16:29.717Z,0.88
2022-08-24T14:19:48.714Z,0.93
2022-08-24T14:23:01.715Z,0.80
2022-08-24T14:25:49.783Z,0.90
2022-08-24T14:28:49.727Z,1.05
2022-08-24T14:31:37.095Z,0.90
2022-08-24T14:34:49.729Z,1.13
2022-08-24T14:37:56.753Z,1.30
2022-08-24T14:41:30.754Z,1.10
2022-08-24T14:44:42.732Z,1.00
2022-08-24T14:48:03.829Z,1.00
2022-08-24T14:51:38.796Z,0.80
2022-08-24T14:54:38.776Z,0.88
2022-08-24T14:57:26.039Z,0.93
2022-08-24T15:00:27.744Z,0.82
2022-08-24T15:03:28.749Z,1.45
2022-08-24T15:06:27.289Z,0.88
2022-08-24T15:09:42.805Z,0.90
2022-08-24T15:12:34.831Z,0.90
2022-08-24T15:15:38.858Z,1.10
2022-08-24T15:19:15.820Z,1.00
2022-08-24T15:22:28.729Z,0.80
2022-08-24T15:25:32.874Z,1.10
2022-08-24T15:28:29.656Z,0.90
2022-08-24T15:31:28.867Z,1.10
2022-08-24T15:34:23.009Z,0.88
2022-08-24T15:37:17.907Z,0.90
2022-08-24T15:40:29.601Z,1.17
2022-08-24T15:43:23.869Z,0.77
2022-08-24T15:46:12.631Z,1.08
2022-08-24T15:49:12.860Z,1.15
2022-08-24T15:52:28.927Z,1.25
2022-08-24T15:55:42.830Z,1.00
2022-08-24T15:58:43.887Z,0.93
2022-08-24T16:01:55.858Z,1.30
2022-08-24T16:08:11.286Z,1.20
2022-08-24T16:11:25.894Z,1.30
2022-08-24T16:14:36.606Z,1.20
2022-08-24T16:17:42.861Z,1.00
2022-08-24T16:20:34.139Z,0.90
2022-08-24T16:23:33.940Z,1.65
2022-08-24T16:26:47.232Z,1.50
2022-08-24T16:29:43.971Z,1.60
2022-08-24T16:32:38.350Z,1.20
2022-08-24T16:35:44.030Z,1.00
2022-08-24T16:38:40.209Z,1.27
2022-08-24T16:41:37.105Z,1.20
2022-08-24T16:44:29.976Z,1.25
2022-08-24T16:47:24.897Z,1.00
2022-08-24T16:50:13.410Z,1.10
2022-08-24T16:53:06.999Z,1.10
2022-08-24T16:55:54.369Z,1.23
2022-08-24T16:58:48.011Z,1.15
2022-08-24T17:01:35.182Z,1.77
2022-08-24T17:04:28.981Z,1.98
2022-08-24T17:07:21.305Z,1.42
2022-08-24T17:10:16.967Z,2.13
2022-08-24T17:13:04.162Z,1.90
2022-08-24T17:15:58.011Z,1.75
2022-08-24T17:18:52.020Z,1.50
2022-08-24T17:21:40.059Z,1.70
2022-08-24T17:24:34.020Z,1.70
2022-08-24T17:27:27.701Z,1.50
2022-08-24T17:30:25.046Z,1.90
2022-08-24T17:33:12.992Z,2.80
2022-08-24T17:36:07.139Z,2.03
2022-08-24T17:39:04.319Z,2.03
2022-08-24T17:42:03.025Z,1.85
2022-08-24T17:44:50.351Z,1.60
2022-08-24T17:47:44.026Z,1.75
2022-08-24T17:50:31.286Z,2.20
2022-08-24T17:53:25.053Z,2.10
2022-08-24T17:56:20.106Z,2.22
2022-08-24T17:59:31.029Z,2.10
2022-08-24T18:02:18.515Z,2.13
2022-08-24T18:05:21.104Z,2.20
2022-08-24T18:08:08.728Z,2.10
2022-08-24T18:11:02.085Z,2.00
2022-08-24T18:13:49.228Z,2.20
2022-08-24T18:16:43.141Z,1.90
2022-08-24T18:19:40.646Z,1.63
2022-08-24T18:22:35.124Z,2.20
2022-08-24T18:25:23.289Z,1.67
2022-08-24T18:28:17.077Z,1.58
2022-08-24T18:31:12.222Z,1.75
2022-08-24T18:34:02.481Z,1.60
2022-08-24T18:36:57.151Z,1.70
2022-08-24T18:39:51.331Z,2.65
2022-08-24T18:42:46.128Z,2.28
2022-08-24T18:45:34.320Z,2.75
2022-08-24T18:48:29.121Z,4.05
2022-08-24T18:51:28.124Z,3.35
2022-08-24T18:54:31.523Z,3.33
2022-08-24T18:57:26.128Z,3.33
2022-08-24T19:00:13.995Z,2.88
2022-08-24T19:03:11.117Z,2.80
2022-08-24T19:05:58.334Z,2.75
2022-08-24T19:08:52.138Z,2.80
2022-08-24T19:11:39.460Z,2.60
2022-08-24T19:14:33.193Z,2.28
2022-08-24T19:17:27.151Z,2.05
2022-08-24T19:20:15.989Z,1.90
2022-08-24T19:23:19.179Z,1.73
2022-08-24T19:26:13.407Z,1.58
2022-08-24T19:29:00.541Z,1.75
2022-08-24T19:31:54.245Z,1.60
2022-08-24T19:34:41.443Z,1.60
2022-08-24T19:37:36.209Z,1.50
2022-08-24T19:40:30.248Z,2.03
2022-08-24T19:43:17.475Z,2.53
2022-08-24T19:46:14.283Z,2.00
2022-08-24T19:49:01.617Z,2.20
2022-08-24T19:51:56.299Z,1.77
2022-08-24T19:54:45.261Z,1.70
2022-08-24T19:57:55.248Z,2.20
2022-08-24T20:00:51.813Z,1.65
2022-08-24T20:03:39.238Z,1.88
2022-08-24T20:06:34.272Z,1.70
2022-08-24T20:09:23.666Z,2.13
2022-08-24T20:12:18.258Z,2.00
2022-08-24T20:15:06.177Z,1.92
2022-08-24T20:18:03.339Z,2.03
2022-08-24T20:20:51.133Z,2.13
2022-08-24T20:23:45.273Z,1.73
2022-08-24T20:26:40.424Z,1.83
2022-08-24T20:29:34.268Z,2.08
2022-08-24T20:32:21.836Z,2.03
2022-08-24T20:35:16.274Z,1.65
2022-08-24T20:38:03.600Z,1.80
2022-08-24T20:40:58.352Z,1.88
2022-08-24T20:43:52.308Z,2.22
2022-08-24T20:46:40.592Z,2.50
2022-08-24T20:49:34.552Z,2.42
2022-08-24T20:52:21.874Z,2.60
2022-08-24T20:55:17.363Z,2.40
2022-08-24T20:58:04.913Z,2.38
2022-08-24T21:00:58.376Z,2.30
2022-08-24T21:03:52.409Z,1.95
2022-08-24T21:06:41.936Z,1.80
2022-08-24T21:09:35.449Z,1.92
2022-08-24T21:12:22.631Z,2.15
2022-08-24T21:15:16.396Z,2.40
2022-08-24T21:18:10.354Z,2.10
2022-08-24T21:21:04.838Z,2.17
2022-08-24T21:23:52.072Z,2.17
2022-08-24T21:26:46.382Z,2.10
2022-08-24T21:29:33.605Z,2.00
2022-08-24T21:32:45.425Z,2.63
2022-08-24T21:35:40.397Z,1.98
2022-08-24T21:38:34.471Z,2.22
2022-08-24T21:41:30.450Z,2.10
2022-08-24T21:44:17.609Z,2.45
2022-08-24T21:47:13.424Z,2.60
2022-08-24T21:50:00.567Z,2.00
2022-08-24T21:52:54.448Z,2.75
2022-08-24T21:55:43.028Z,2.70
2022-08-24T21:58:36.460Z,3.33
2022-08-24T22:01:24.799Z,2.63
2022-08-24T22:04:21.465Z,2.40
2022-08-24T22:07:12.351Z,2.30
2022-08-24T22:10:06.435Z,2.50
2022-08-24T22:13:04.030Z,2.60
2022-08-24T22:15:51.771Z,2.60
2022-08-24T22:18:46.428Z,3.00
2022-08-24T22:21:36.525Z,2.40
2022-08-24T22:24:30.442Z,3.50
2022-08-24T22:27:25.133Z,2.60
2022-08-24T22:30:15.721Z,2.67
2022-08-24T22:33:11.498Z,3.10
2022-08-24T22:35:58.595Z,2.20
2022-08-24T22:38:52.459Z,2.95
2022-08-24T22:41:46.548Z,2.60
2022-08-24T22:44:34.249Z,2.40
2022-08-24T22:47:27.491Z,2.90
2022-08-24T22:50:15.085Z,3.40
2022-08-24T22:53:09.539Z,3.20
2022-08-24T22:55:56.888Z,3.20
2022-08-24T22:58:51.492Z,3.58
2022-08-24T23:01:40.743Z,3.28
2022-08-24T23:04:41.481Z,3.50
2022-08-24T23:07:28.584Z,3.50
2022-08-24T23:10:22.523Z,3.35
2022-08-24T23:13:16.568Z,3.25
2022-08-24T23:16:16.615Z,3.30
2022-08-24T23:19:23.186Z,3.78
2022-08-24T23:22:19.586Z,3.90
2022-08-24T23:25:19.552Z,3.80
2022-08-24T23:28:06.998Z,3.55
2022-08-24T23:31:00.574Z,3.80
2022-08-24T23:33:48.071Z,4.05
2022-08-24T23:36:43.581Z,3.65
2022-08-24T23:39:31.084Z,3.72
2022-08-24T23:42:24.576Z,3.60
2022-08-24T23:45:12.303Z,3.75
2022-08-24T23:48:13.669Z,3.47
2022-08-24T23:51:01.416Z,3.70
2022-08-24T23:53:56.638Z,3.95
2022-08-24T23:56:46.229Z,3.53
2022-08-24T23:59:40.681Z,3.92
